sensor_id;sensor_type;location;lat;lon;timestamp;temperature;humidity
9861;DHT22;4969;52.304;4.968;2023-02-20T00:00:21;13.55;67.00
9861;DHT22;4969;52.304;4.968;2023-02-20T00:02:48;13.59;70.02
9861;DHT22;4969;52.304;4.968;2023-02-20T00:05:15;14.16;68.97
9861;DHT22;4969;52.304;4.968;2023-02-20T00:07:42;14.41;67.77
9861;DHT22;4969;52.304;4.968;2023-02-20T00:10:09;14.41;67.75
9861;DHT22;4969;52.304;4.968;2023-02-20T00:12:36;14.33;67.78
9861;DHT22;4969;52.304;4.968;2023-02-20T00:15:04;14.62;65.31
9861;DHT22;4969;52.304;4.968;2023-02-20T00:17:32;14.58;66.34
9861;DHT22;4969;52.304;4.968;2023-02-20T00:19:59;14.60;62.80
9861;DHT22;4969;52.304;4.968;2023-02-20T00:22:26;14.40;65.50
9861;DHT22;4969;52.304;4.968;2023-02-20T00:24:52;13.96;68.79
9861;DHT22;4969;52.304;4.968;2023-02-20T00:27:19;14.23;65.32
9861;DHT22;4969;52.304;4.968;2023-02-20T00:29:46;14.76;65.17
9861;DHT22;4969;52.304;4.968;2023-02-20T00:32:12;13.71;64.61
9861;DHT22;4969;52.304;4.968;2023-02-20T00:34:40;13.10;69.40
9861;DHT22;4969;52.304;4.968;2023-02-20T00:37:07;13.95;64.28
9861;DHT22;4969;52.304;4.968;2023-02-20T00:39:34;14.07;65.02
9861;DHT22;4969;52.304;4.968;2023-02-20T00:42:01;13.96;70.86
9861;DHT22;4969;52.304;4.968;2023-02-20T00:44:27;13.99;67.99
9861;DHT22;4969;52.304;4.968;2023-02-20T00:46:54;12.91;64.39
9861;DHT22;4969;52.304;4.968;2023-02-20T00:49:20;13.54;68.41
9861;DHT22;4969;52.304;4.968;2023-02-20T00:51:49;13.58;62.92
9861;DHT22;4969;52.304;4.968;2023-02-20T00:54:15;13.44;67.63
9861;DHT22;4969;52.304;4.968;2023-02-20T00:56:42;14.16;67.96
9861;DHT22;4969;52.304;4.968;2023-02-20T00:59:09;13.82;68.08
9861;DHT22;4969;52.304;4.968;2023-02-20T01:01:35;14.26;70.04
9861;DHT22;4969;52.304;4.968;2023-02-20T01:04:02;13.85;67.59
9861;DHT22;4969;52.304;4.968;2023-02-20T01:06:29;14.07;63.41
9861;DHT22;4969;52.304;4.968;2023-02-20T01:08:57;14.09;67.78
9861;DHT22;4969;52.304;4.968;2023-02-20T01:11:23;14.50;67.86
9861;DHT22;4969;52.304;4.968;2023-02-20T01:13:50;14.26;68.79
9861;DHT22;4969;52.304;4.968;2023-02-20T01:16:16;14.58;68.58
9861;DHT22;4969;52.304;4.968;2023-02-20T01:18:43;14.28;68.38
9861;DHT22;4969;52.304;4.968;2023-02-20T01:21:10;13.86;69.07
9861;DHT22;4969;52.304;4.968;2023-02-20T01:23:36;13.42;64.64
9861;DHT22;4969;52.304;4.968;2023-02-20T01:26:04;14.10;69.34
9861;DHT22;4969;52.304;4.968;2023-02-20T01:28:31;14.64;68.41
9861;DHT22;4969;52.304;4.968;2023-02-20T01:30:57;14.93;67.27
9861;DHT22;4969;52.304;4.968;2023-02-20T01:33:24;14.45;63.23
9861;DHT22;4969;52.304;4.968;2023-02-20T01:35:51;14.28;65.85
9861;DHT22;4969;52.304;4.968;2023-02-20T01:38:17;14.41;67.88
9861;DHT22;4969;52.304;4.968;2023-02-20T01:40:46;15.03;65.25
9861;DHT22;4969;52.304;4.968;2023-02-20T01:43:15;14.24;63.78
9861;DHT22;4969;52.304;4.968;2023-02-20T01:45:42;14.41;63.22
9861;DHT22;4969;52.304;4.968;2023-02-20T01:48:18;14.81;67.47
9861;DHT22;4969;52.304;4.968;2023-02-20T01:50:45;14.73;65.98
9861;DHT22;4969;52.304;4.968;2023-02-20T01:53:15;15.11;66.88
9861;DHT22;4969;52.304;4.968;2023-02-20T01:55:45;14.52;65.06
9861;DHT22;4969;52.304;4.968;2023-02-20T01:58:16;14.42;63.95
9861;DHT22;4969;52.304;4.968;2023-02-20T02:00:44;14.96;66.67
9861;DHT22;4969;52.304;4.968;2023-02-20T02:03:13;15.43;66.22
9861;DHT22;4969;52.304;4.968;2023-02-20T02:05:43;14.61;64.30
9861;DHT22;4969;52.304;4.968;2023-02-20T02:08:14;14.88;67.44
9861;DHT22;4969;52.304;4.968;2023-02-20T02:10:47;14.60;67.96
9861;DHT22;4969;52.304;4.968;2023-02-20T02:13:16;14.37;69.48
9861;DHT22;4969;52.304;4.968;2023-02-20T02:15:43;14.06;66.83
9861;DHT22;4969;52.304;4.968;2023-02-20T02:18:30;14.35;67.68
9861;DHT22;4969;52.304;4.968;2023-02-20T02:21:34;14.79;65.05
9861;DHT22;4969;52.304;4.968;2023-02-20T02:24:34;14.82;63.22
9861;DHT22;4969;52.304;4.968;2023-02-20T02:30:42;14.95;65.51
9861;DHT22;4969;52.304;4.968;2023-02-20T02:33:31;14.61;65.92
9861;DHT22;4969;52.304;4.968;2023-02-20T02:36:17;14.98;66.36
9861;DHT22;4969;52.304;4.968;2023-02-20T02:38:52;14.90;64.14
9861;DHT22;4969;52.304;4.968;2023-02-20T02:41:31;14.61;65.53
9861;DHT22;4969;52.304;4.968;2023-02-20T02:44:04;13.75;69.21
9861;DHT22;4969;52.304;4.968;2023-02-20T02:46:38;14.16;67.14
9861;DHT22;4969;52.304;4.968;2023-02-20T02:49:13;14.16;67.77
9861;DHT22;4969;52.304;4.968;2023-02-20T02:51:45;14.28;67.96
9861;DHT22;4969;52.304;4.968;2023-02-20T02:54:15;13.93;70.32
9861;DHT22;4969;52.304;4.968;2023-02-20T02:56:43;13.71;66.29
9861;DHT22;4969;52.304;4.968;2023-02-20T02:59:13;13.14;68.48
9861;DHT22;4969;52.304;4.968;2023-02-20T03:01:43;13.23;69.97
9861;DHT22;4969;52.304;4.968;2023-02-20T03:04:13;13.88;71.06
9861;DHT22;4969;52.304;4.968;2023-02-20T03:06:51;14.27;67.33
9861;DHT22;4969;52.304;4.968;2023-02-20T03:09:21;13.86;64.67
9861;DHT22;4969;52.304;4.968;2023-02-20T03:11:51;13.78;67.59
9861;DHT22;4969;52.304;4.968;2023-02-20T03:14:21;13.07;69.46
9861;DHT22;4969;52.304;4.968;2023-02-20T03:17:10;13.78;69.00
9861;DHT22;4969;52.304;4.968;2023-02-20T03:19:40;12.82;69.06
9861;DHT22;4969;52.304;4.968;2023-02-20T03:22:15;13.19;72.07
9861;DHT22;4969;52.304;4.968;2023-02-20T03:24:45;13.48;69.64
9861;DHT22;4969;52.304;4.968;2023-02-20T03:27:24;13.69;69.72
9861;DHT22;4969;52.304;4.968;2023-02-20T03:29:54;13.03;66.74
9861;DHT22;4969;52.304;4.968;2023-02-20T03:32:25;13.69;70.65
9861;DHT22;4969;52.304;4.968;2023-02-20T03:35:12;13.69;67.22
9861;DHT22;4969;52.304;4.968;2023-02-20T03:37:59;14.12;69.81
9861;DHT22;4969;52.304;4.968;2023-02-20T03:40:45;13.62;67.96
9861;DHT22;4969;52.304;4.968;2023-02-20T03:43:30;13.69;68.10
9861;DHT22;4969;52.304;4.968;2023-02-20T03:46:00;12.55;67.98
9861;DHT22;4969;52.304;4.968;2023-02-20T03:48:32;12.79;71.65
9861;DHT22;4969;52.304;4.968;2023-02-20T03:51:01;13.05;72.01
9861;DHT22;4969;52.304;4.968;2023-02-20T03:53:30;13.14;73.74
9861;DHT22;4969;52.304;4.968;2023-02-20T03:56:00;13.10;70.01
9861;DHT22;4969;52.304;4.968;2023-02-20T03:58:30;12.99;68.69
9861;DHT22;4969;52.304;4.968;2023-02-20T04:01:01;12.86;69.30
9861;DHT22;4969;52.304;4.968;2023-02-20T04:03:32;13.09;70.84
9861;DHT22;4969;52.304;4.968;2023-02-20T04:06:01;13.19;69.11
9861;DHT22;4969;52.304;4.968;2023-02-20T04:08:34;12.80;72.52
9861;DHT22;4969;52.304;4.968;2023-02-20T04:11:05;12.65;71.41
9861;DHT22;4969;52.304;4.968;2023-02-20T04:13:34;13.10;72.15
9861;DHT22;4969;52.304;4.968;2023-02-20T04:16:02;12.83;69.35
9861;DHT22;4969;52.304;4.968;2023-02-20T04:18:30;12.59;68.75
9861;DHT22;4969;52.304;4.968;2023-02-20T04:20:58;12.89;74.27
9861;DHT22;4969;52.304;4.968;2023-02-20T04:23:26;12.17;72.93
9861;DHT22;4969;52.304;4.968;2023-02-20T04:25:58;12.99;71.20
9861;DHT22;4969;52.304;4.968;2023-02-20T04:28:26;12.97;74.28
9861;DHT22;4969;52.304;4.968;2023-02-20T04:30:53;13.58;70.41
9861;DHT22;4969;52.304;4.968;2023-02-20T04:33:20;13.00;69.67
9861;DHT22;4969;52.304;4.968;2023-02-20T04:35:47;12.48;69.65
9861;DHT22;4969;52.304;4.968;2023-02-20T04:38:14;12.58;70.46
9861;DHT22;4969;52.304;4.968;2023-02-20T04:40:40;12.40;69.61
9861;DHT22;4969;52.304;4.968;2023-02-20T04:43:08;12.23;71.20
9861;DHT22;4969;52.304;4.968;2023-02-20T04:45:35;12.13;71.78
9861;DHT22;4969;52.304;4.968;2023-02-20T04:48:02;11.81;71.38
9861;DHT22;4969;52.304;4.968;2023-02-20T04:50:30;11.81;75.54
9861;DHT22;4969;52.304;4.968;2023-02-20T04:52:58;11.69;70.77
9861;DHT22;4969;52.304;4.968;2023-02-20T04:55:25;11.37;73.17
9861;DHT22;4969;52.304;4.968;2023-02-20T04:57:52;11.55;73.41
9861;DHT22;4969;52.304;4.968;2023-02-20T05:00:22;11.30;76.43
9861;DHT22;4969;52.304;4.968;2023-02-20T05:02:50;12.10;74.29
9861;DHT22;4969;52.304;4.968;2023-02-20T05:05:18;12.21;70.38
9861;DHT22;4969;52.304;4.968;2023-02-20T05:07:46;11.44;72.55
9861;DHT22;4969;52.304;4.968;2023-02-20T05:10:13;11.72;74.89
9861;DHT22;4969;52.304;4.968;2023-02-20T05:12:40;11.82;74.94
9861;DHT22;4969;52.304;4.968;2023-02-20T05:15:07;12.17;75.93
9861;DHT22;4969;52.304;4.968;2023-02-20T05:17:35;11.61;71.94
9861;DHT22;4969;52.304;4.968;2023-02-20T05:20:02;11.97;75.22
9861;DHT22;4969;52.304;4.968;2023-02-20T05:22:29;12.07;75.81
9861;DHT22;4969;52.304;4.968;2023-02-20T05:24:55;11.95;73.88
9861;DHT22;4969;52.304;4.968;2023-02-20T05:27:23;12.24;70.48
9861;DHT22;4969;52.304;4.968;2023-02-20T05:29:51;11.75;72.87
9861;DHT22;4969;52.304;4.968;2023-02-20T05:32:19;11.30;76.74
9861;DHT22;4969;52.304;4.968;2023-02-20T05:34:48;11.64;76.42
9861;DHT22;4969;52.304;4.968;2023-02-20T05:37:15;12.17;73.27
9861;DHT22;4969;52.304;4.968;2023-02-20T05:39:42;11.31;73.01
9861;DHT22;4969;52.304;4.968;2023-02-20T05:42:09;10.74;77.81
9861;DHT22;4969;52.304;4.968;2023-02-20T05:44:36;10.13;77.29
9861;DHT22;4969;52.304;4.968;2023-02-20T05:47:03;10.31;78.42
9861;DHT22;4969;52.304;4.968;2023-02-20T05:49:30;10.48;78.47
9861;DHT22;4969;52.304;4.968;2023-02-20T05:52:00;10.67;77.74
9861;DHT22;4969;52.304;4.968;2023-02-20T05:54:27;10.91;74.83
9861;DHT22;4969;52.304;4.968;2023-02-20T05:56:54;11.41;75.84
9861;DHT22;4969;52.304;4.968;2023-02-20T05:59:22;11.19;75.12
9861;DHT22;4969;52.304;4.968;2023-02-20T06:01:54;11.14;74.18
9861;DHT22;4969;52.304;4.968;2023-02-20T06:04:21;10.86;76.69
9861;DHT22;4969;52.304;4.968;2023-02-20T06:06:47;10.41;76.91
9861;DHT22;4969;52.304;4.968;2023-02-20T06:09:15;11.09;74.43
9861;DHT22;4969;52.304;4.968;2023-02-20T06:11:47;11.03;75.86
9861;DHT22;4969;52.304;4.968;2023-02-20T06:14:15;10.60;76.92
9861;DHT22;4969;52.304;4.968;2023-02-20T06:16:43;10.41;77.58
9861;DHT22;4969;52.304;4.968;2023-02-20T06:19:10;11.20;78.95
9861;DHT22;4969;52.304;4.968;2023-02-20T06:21:37;10.97;76.60
9861;DHT22;4969;52.304;4.968;2023-02-20T06:24:05;10.75;76.27
9861;DHT22;4969;52.304;4.968;2023-02-20T06:26:38;10.65;75.19
9861;DHT22;4969;52.304;4.968;2023-02-20T06:29:04;10.72;75.61
9861;DHT22;4969;52.304;4.968;2023-02-20T06:31:31;10.63;75.98
9861;DHT22;4969;52.304;4.968;2023-02-20T06:33:58;10.61;76.13
9861;DHT22;4969;52.304;4.968;2023-02-20T06:36:27;10.44;78.21
9861;DHT22;4969;52.304;4.968;2023-02-20T06:38:54;10.92;77.29
9861;DHT22;4969;52.304;4.968;2023-02-20T06:41:20;11.00;77.32
9861;DHT22;4969;52.304;4.968;2023-02-20T06:43:48;11.62;74.48
9861;DHT22;4969;52.304;4.968;2023-02-20T06:46:15;11.71;78.02
9861;DHT22;4969;52.304;4.968;2023-02-20T06:48:45;11.10;73.98
9861;DHT22;4969;52.304;4.968;2023-02-20T06:51:15;10.89;75.13
9861;DHT22;4969;52.304;4.968;2023-02-20T06:53:41;11.10;74.82
9861;DHT22;4969;52.304;4.968;2023-02-20T06:56:08;11.27;76.36
9861;DHT22;4969;52.304;4.968;2023-02-20T06:58:36;10.49;76.82
9861;DHT22;4969;52.304;4.968;2023-02-20T07:01:04;11.46;74.77
9861;DHT22;4969;52.304;4.968;2023-02-20T07:03:30;11.79;73.27
9861;DHT22;4969;52.304;4.968;2023-02-20T07:05:57;11.90;74.15
9861;DHT22;4969;52.304;4.968;2023-02-20T07:08:24;12.04;75.26
9861;DHT22;4969;52.304;4.968;2023-02-20T07:10:50;12.30;70.70
9861;DHT22;4969;52.304;4.968;2023-02-20T07:13:19;12.47;75.44
9861;DHT22;4969;52.304;4.968;2023-02-20T07:15:46;11.86;70.04
9861;DHT22;4969;52.304;4.968;2023-02-20T07:18:14;11.76;71.78
9861;DHT22;4969;52.304;4.968;2023-02-20T07:20:41;11.38;75.19
9861;DHT22;4969;52.304;4.968;2023-02-20T07:23:08;11.23;72.82
9861;DHT22;4969;52.304;4.968;2023-02-20T07:25:34;11.71;77.43
9861;DHT22;4969;52.304;4.968;2023-02-20T07:28:01;11.51;73.35
9861;DHT22;4969;52.304;4.968;2023-02-20T07:30:27;11.93;74.90
9861;DHT22;4969;52.304;4.968;2023-02-20T07:32:54;12.68;72.00
9861;DHT22;4969;52.304;4.968;2023-02-20T07:35:22;11.40;72.25
9861;DHT22;4969;52.304;4.968;2023-02-20T07:37:49;11.61;73.67
9861;DHT22;4969;52.304;4.968;2023-02-20T07:40:15;11.57;71.72
9861;DHT22;4969;52.304;4.968;2023-02-20T07:42:42;11.59;75.26
9861;DHT22;4969;52.304;4.968;2023-02-20T07:45:09;11.24;75.69
9861;DHT22;4969;52.304;4.968;2023-02-20T07:47:35;11.13;76.66
9861;DHT22;4969;52.304;4.968;2023-02-20T07:50:02;11.14;76.28
9861;DHT22;4969;52.304;4.968;2023-02-20T07:52:31;11.17;76.78
9861;DHT22;4969;52.304;4.968;2023-02-20T07:54:57;11.68;75.86
9861;DHT22;4969;52.304;4.968;2023-02-20T07:57:24;12.12;72.64
9861;DHT22;4969;52.304;4.968;2023-02-20T07:59:50;11.24;76.28
9861;DHT22;4969;52.304;4.968;2023-02-20T08:02:17;11.27;75.88
9861;DHT22;4969;52.304;4.968;2023-02-20T08:04:44;11.40;74.29
9861;DHT22;4969;52.304;4.968;2023-02-20T08:07:10;11.52;75.65
9861;DHT22;4969;52.304;4.968;2023-02-20T08:09:38;11.59;74.45
9861;DHT22;4969;52.304;4.968;2023-02-20T08:12:05;11.93;75.07
9861;DHT22;4969;52.304;4.968;2023-02-20T08:14:31;12.47;75.68
9861;DHT22;4969;52.304;4.968;2023-02-20T08:16:58;11.81;72.85
9861;DHT22;4969;52.304;4.968;2023-02-20T08:19:25;11.10;75.93
9861;DHT22;4969;52.304;4.968;2023-02-20T08:21:51;10.82;76.13
9861;DHT22;4969;52.304;4.968;2023-02-20T08:24:18;11.36;77.92
9861;DHT22;4969;52.304;4.968;2023-02-20T08:26:47;11.61;76.72
9861;DHT22;4969;52.304;4.968;2023-02-20T08:29:14;11.06;75.32
9861;DHT22;4969;52.304;4.968;2023-02-20T08:31:41;11.09;75.43
9861;DHT22;4969;52.304;4.968;2023-02-20T08:34:08;10.88;76.28
9861;DHT22;4969;52.304;4.968;2023-02-20T08:36:35;10.96;79.11
9861;DHT22;4969;52.304;4.968;2023-02-20T08:39:01;11.37;75.95
9861;DHT22;4969;52.304;4.968;2023-02-20T08:41:28;10.54;76.59
9861;DHT22;4969;52.304;4.968;2023-02-20T08:43:56;10.48;78.76
9861;DHT22;4969;52.304;4.968;2023-02-20T08:46:23;10.96;77.55
9861;DHT22;4969;52.304;4.968;2023-02-20T08:48:49;11.48;75.51
9861;DHT22;4969;52.304;4.968;2023-02-20T08:51:18;11.79;77.06
9861;DHT22;4969;52.304;4.968;2023-02-20T08:53:45;11.78;78.60
9861;DHT22;4969;52.304;4.968;2023-02-20T08:56:11;11.61;77.70
9861;DHT22;4969;52.304;4.968;2023-02-20T08:58:38;11.28;75.78
9861;DHT22;4969;52.304;4.968;2023-02-20T09:01:06;11.95;74.96
9861;DHT22;4969;52.304;4.968;2023-02-20T09:03:33;12.21;77.40
9861;DHT22;4969;52.304;4.968;2023-02-20T09:06:03;11.23;76.34
9861;DHT22;4969;52.304;4.968;2023-02-20T09:08:30;11.38;77.49
9861;DHT22;4969;52.304;4.968;2023-02-20T09:10:56;11.40;75.23
9861;DHT22;4969;52.304;4.968;2023-02-20T09:13:23;10.85;75.79
9861;DHT22;4969;52.304;4.968;2023-02-20T09:15:49;10.92;79.15
9861;DHT22;4969;52.304;4.968;2023-02-20T09:18:17;10.85;76.62
9861;DHT22;4969;52.304;4.968;2023-02-20T09:20:44;11.27;77.51
9861;DHT22;4969;52.304;4.968;2023-02-20T09:23:11;11.19;76.82
9861;DHT22;4969;52.304;4.968;2023-02-20T09:25:38;11.62;76.61
9861;DHT22;4969;52.304;4.968;2023-02-20T09:28:05;12.02;72.69
9861;DHT22;4969;52.304;4.968;2023-02-20T09:30:33;12.50;73.12
9861;DHT22;4969;52.304;4.968;2023-02-20T09:32:59;11.51;73.96
9861;DHT22;4969;52.304;4.968;2023-02-20T09:35:29;11.38;74.87
9861;DHT22;4969;52.304;4.968;2023-02-20T09:37:56;11.89;78.81
9861;DHT22;4969;52.304;4.968;2023-02-20T09:40:24;11.67;74.11
9861;DHT22;4969;52.304;4.968;2023-02-20T09:43:08;11.26;75.42
9861;DHT22;4969;52.304;4.968;2023-02-20T09:45:40;11.54;78.58
9861;DHT22;4969;52.304;4.968;2023-02-20T09:48:18;11.31;74.79
9861;DHT22;4969;52.304;4.968;2023-02-20T09:50:50;11.26;77.64
9861;DHT22;4969;52.304;4.968;2023-02-20T09:53:23;11.52;75.48
9861;DHT22;4969;52.304;4.968;2023-02-20T09:55:51;11.50;75.36
9861;DHT22;4969;52.304;4.968;2023-02-20T09:58:27;11.69;76.02
9861;DHT22;4969;52.304;4.968;2023-02-20T10:00:57;11.36;75.37
9861;DHT22;4969;52.304;4.968;2023-02-20T10:03:30;11.21;78.04
9861;DHT22;4969;52.304;4.968;2023-02-20T10:06:00;11.46;78.12
9861;DHT22;4969;52.304;4.968;2023-02-20T10:08:29;10.96;75.90
9861;DHT22;4969;52.304;4.968;2023-02-20T10:11:00;11.28;79.86
9861;DHT22;4969;52.304;4.968;2023-02-20T10:13:37;11.57;76.35
9861;DHT22;4969;52.304;4.968;2023-02-20T10:16:14;12.19;74.65
9861;DHT22;4969;52.304;4.968;2023-02-20T10:18:52;12.24;75.77
9861;DHT22;4969;52.304;4.968;2023-02-20T10:21:35;11.81;73.41
9861;DHT22;4969;52.304;4.968;2023-02-20T10:24:17;12.23;74.46
9861;DHT22;4969;52.304;4.968;2023-02-20T10:26:51;11.95;74.64
9861;DHT22;4969;52.304;4.968;2023-02-20T10:29:22;11.58;75.32
9861;DHT22;4969;52.304;4.968;2023-02-20T10:31:53;12.07;75.23
9861;DHT22;4969;52.304;4.968;2023-02-20T10:34:29;11.92;73.44
9861;DHT22;4969;52.304;4.968;2023-02-20T10:37:05;12.85;74.92
9861;DHT22;4969;52.304;4.968;2023-02-20T10:39:34;12.30;73.10
9861;DHT22;4969;52.304;4.968;2023-02-20T10:42:09;12.29;75.56
9861;DHT22;4969;52.304;4.968;2023-02-20T10:44:39;12.37;71.57
9861;DHT22;4969;52.304;4.968;2023-02-20T10:47:12;12.29;72.97
9861;DHT22;4969;52.304;4.968;2023-02-20T10:49:45;12.21;73.38
9861;DHT22;4969;52.304;4.968;2023-02-20T10:52:20;12.26;74.87
9861;DHT22;4969;52.304;4.968;2023-02-20T10:54:51;12.03;73.99
9861;DHT22;4969;52.304;4.968;2023-02-20T10:57:25;11.95;76.16
9861;DHT22;4969;52.304;4.968;2023-02-20T10:59:56;11.95;78.62
9861;DHT22;4969;52.304;4.968;2023-02-20T11:02:31;12.03;72.98
9861;DHT22;4969;52.304;4.968;2023-02-20T11:05:01;11.43;74.71
9861;DHT22;4969;52.304;4.968;2023-02-20T11:07:30;12.13;72.74
9861;DHT22;4969;52.304;4.968;2023-02-20T11:09:57;12.55;76.43
9861;DHT22;4969;52.304;4.968;2023-02-20T11:12:28;12.07;72.84
9861;DHT22;4969;52.304;4.968;2023-02-20T11:14:56;12.21;73.53
9861;DHT22;4969;52.304;4.968;2023-02-20T11:17:25;12.29;73.33
9861;DHT22;4969;52.304;4.968;2023-02-20T11:19:53;12.52;73.76
9861;DHT22;4969;52.304;4.968;2023-02-20T11:22:40;11.65;73.68
9861;DHT22;4969;52.304;4.968;2023-02-20T11:25:15;11.65;75.32
9861;DHT22;4969;52.304;4.968;2023-02-20T11:27:44;12.52;74.95
9861;DHT22;4969;52.304;4.968;2023-02-20T11:30:27;12.33;73.51
9861;DHT22;4969;52.304;4.968;2023-02-20T11:33:03;12.12;73.96
9861;DHT22;4969;52.304;4.968;2023-02-20T11:35:34;12.33;75.77
9861;DHT22;4969;52.304;4.968;2023-02-20T11:38:26;11.97;74.90
9861;DHT22;4969;52.304;4.968;2023-02-20T11:41:08;11.95;73.84
9861;DHT22;4969;52.304;4.968;2023-02-20T11:43:40;12.02;73.17
9861;DHT22;4969;52.304;4.968;2023-02-20T11:46:10;11.89;75.31
9861;DHT22;4969;52.304;4.968;2023-02-20T11:48:57;11.36;74.74
9861;DHT22;4969;52.304;4.968;2023-02-20T11:51:31;11.09;75.62
9861;DHT22;4969;52.304;4.968;2023-02-20T11:54:12;11.64;77.36
9861;DHT22;4969;52.304;4.968;2023-02-20T11:56:54;12.12;73.89
9861;DHT22;4969;52.304;4.968;2023-02-20T11:59:28;11.72;74.78
9861;DHT22;4969;52.304;4.968;2023-02-20T12:02:17;11.78;77.92
9861;DHT22;4969;52.304;4.968;2023-02-20T12:05:05;11.89;76.19
9861;DHT22;4969;52.304;4.968;2023-02-20T12:07:35;12.06;73.49
9861;DHT22;4969;52.304;4.968;2023-02-20T12:10:13;11.67;77.70
9861;DHT22;4969;52.304;4.968;2023-02-20T12:12:41;11.44;74.62
9861;DHT22;4969;52.304;4.968;2023-02-20T12:15:12;11.41;77.25
9861;DHT22;4969;52.304;4.968;2023-02-20T12:20:36;11.27;76.90
9861;DHT22;4969;52.304;4.968;2023-02-20T12:23:15;11.75;77.21
9861;DHT22;4969;52.304;4.968;2023-02-20T12:25:54;11.90;75.48
9861;DHT22;4969;52.304;4.968;2023-02-20T12:28:29;11.41;75.58
9861;DHT22;4969;52.304;4.968;2023-02-20T12:31:11;11.97;77.47
9861;DHT22;4969;52.304;4.968;2023-02-20T12:33:47;11.50;76.74
9861;DHT22;4969;52.304;4.968;2023-02-20T12:36:26;10.88;76.69
9861;DHT22;4969;52.304;4.968;2023-02-20T12:38:57;11.26;80.00
9861;DHT22;4969;52.304;4.968;2023-02-20T12:41:30;11.69;78.16
9861;DHT22;4969;52.304;4.968;2023-02-20T12:44:13;11.12;75.75
9861;DHT22;4969;52.304;4.968;2023-02-20T12:46:53;11.48;77.14
9861;DHT22;4969;52.304;4.968;2023-02-20T12:49:40;11.46;76.14
9861;DHT22;4969;52.304;4.968;2023-02-20T12:52:25;11.38;76.00
9861;DHT22;4969;52.304;4.968;2023-02-20T12:54:59;11.59;75.91
9861;DHT22;4969;52.304;4.968;2023-02-20T12:57:49;11.52;77.05
9861;DHT22;4969;52.304;4.968;2023-02-20T13:00:24;11.44;79.50
9861;DHT22;4969;52.304;4.968;2023-02-20T13:02:57;11.57;77.47
9861;DHT22;4969;52.304;4.968;2023-02-20T13:05:26;11.44;75.84
9861;DHT22;4969;52.304;4.968;2023-02-20T13:07:55;11.55;79.05
9861;DHT22;4969;52.304;4.968;2023-02-20T13:10:24;11.67;74.29
9861;DHT22;4969;52.304;4.968;2023-02-20T13:12:53;11.38;75.10
9861;DHT22;4969;52.304;4.968;2023-02-20T13:15:29;11.61;75.32
9861;DHT22;4969;52.304;4.968;2023-02-20T13:18:03;11.79;74.57
9861;DHT22;4969;52.304;4.968;2023-02-20T13:20:37;11.20;75.64
9861;DHT22;4969;52.304;4.968;2023-02-20T13:25:47;12.55;74.49
9861;DHT22;4969;52.304;4.968;2023-02-20T13:28:25;11.38;75.39
9861;DHT22;4969;52.304;4.968;2023-02-20T13:31:09;12.34;76.57
9861;DHT22;4969;52.304;4.968;2023-02-20T13:33:37;11.82;74.45
9861;DHT22;4969;52.304;4.968;2023-02-20T13:36:05;12.17;74.48
9861;DHT22;4969;52.304;4.968;2023-02-20T13:38:40;12.42;75.32
9861;DHT22;4969;52.304;4.968;2023-02-20T13:41:08;12.29;75.52
9861;DHT22;4969;52.304;4.968;2023-02-20T13:43:37;11.78;77.81
9861;DHT22;4969;52.304;4.968;2023-02-20T13:46:15;11.79;74.80
9861;DHT22;4969;52.304;4.968;2023-02-20T13:48:48;11.67;77.25
9861;DHT22;4969;52.304;4.968;2023-02-20T13:51:32;11.52;74.97
9861;DHT22;4969;52.304;4.968;2023-02-20T13:54:24;11.54;74.91
9861;DHT22;4969;52.304;4.968;2023-02-20T13:56:57;11.69;75.37
9861;DHT22;4969;52.304;4.968;2023-02-20T13:59:28;11.71;74.72
9861;DHT22;4969;52.304;4.968;2023-02-20T14:02:14;11.55;78.23
9861;DHT22;4969;52.304;4.968;2023-02-20T14:04:55;11.37;75.92
9861;DHT22;4969;52.304;4.968;2023-02-20T14:07:33;11.14;78.70
9861;DHT22;4969;52.304;4.968;2023-02-20T14:10:04;10.81;77.61
9861;DHT22;4969;52.304;4.968;2023-02-20T14:12:33;11.07;79.54
9861;DHT22;4969;52.304;4.968;2023-02-20T14:15:04;11.76;76.90
9861;DHT22;4969;52.304;4.968;2023-02-20T14:17:31;11.92;80.30
9861;DHT22;4969;52.304;4.968;2023-02-20T14:20:00;11.41;74.75
9861;DHT22;4969;52.304;4.968;2023-02-20T14:22:30;11.83;76.61
9861;DHT22;4969;52.304;4.968;2023-02-20T14:25:08;11.24;75.56
9861;DHT22;4969;52.304;4.968;2023-02-20T14:27:40;10.83;76.98
9861;DHT22;4969;52.304;4.968;2023-02-20T14:30:12;11.12;79.11
9861;DHT22;4969;52.304;4.968;2023-02-20T14:32:41;11.65;77.14
9861;DHT22;4969;52.304;4.968;2023-02-20T14:35:15;11.21;76.65
9861;DHT22;4969;52.304;4.968;2023-02-20T14:37:54;11.43;76.08
9861;DHT22;4969;52.304;4.968;2023-02-20T14:40:27;11.65;79.88
9861;DHT22;4969;52.304;4.968;2023-02-20T14:43:00;10.89;75.74
9861;DHT22;4969;52.304;4.968;2023-02-20T14:45:28;12.09;75.64
9861;DHT22;4969;52.304;4.968;2023-02-20T14:47:57;12.47;79.92
9861;DHT22;4969;52.304;4.968;2023-02-20T14:50:27;12.29;77.46
9861;DHT22;4969;52.304;4.968;2023-02-20T14:53:01;12.31;77.54
9861;DHT22;4969;52.304;4.968;2023-02-20T14:55:28;11.76;74.56
9861;DHT22;4969;52.304;4.968;2023-02-20T14:57:55;11.76;77.91
9861;DHT22;4969;52.304;4.968;2023-02-20T15:00:32;11.40;77.27
9861;DHT22;4969;52.304;4.968;2023-02-20T15:03:00;11.85;79.28
9861;DHT22;4969;52.304;4.968;2023-02-20T15:05:32;11.65;74.55
9861;DHT22;4969;52.304;4.968;2023-02-20T15:08:05;12.57;76.76
9861;DHT22;4969;52.304;4.968;2023-02-20T15:10:40;12.16;75.25
9861;DHT22;4969;52.304;4.968;2023-02-20T15:13:08;11.31;74.71
9861;DHT22;4969;52.304;4.968;2023-02-20T15:15:39;11.00;77.98
9861;DHT22;4969;52.304;4.968;2023-02-20T15:18:08;11.43;78.19
9861;DHT22;4969;52.304;4.968;2023-02-20T15:20:37;10.95;76.65
9861;DHT22;4969;52.304;4.968;2023-02-20T15:23:23;11.16;77.66
9861;DHT22;4969;52.304;4.968;2023-02-20T15:25:50;11.10;77.55
9861;DHT22;4969;52.304;4.968;2023-02-20T15:28:27;11.10;75.39
9861;DHT22;4969;52.304;4.968;2023-02-20T15:31:20;11.59;78.77
9861;DHT22;4969;52.304;4.968;2023-02-20T15:33:51;12.20;77.50
9861;DHT22;4969;52.304;4.968;2023-02-20T15:36:20;11.10;75.09
9861;DHT22;4969;52.304;4.968;2023-02-20T15:38:50;11.27;78.45
9861;DHT22;4969;52.304;4.968;2023-02-20T15:41:17;11.51;75.40
9861;DHT22;4969;52.304;4.968;2023-02-20T15:43:45;12.62;77.47
9861;DHT22;4969;52.304;4.968;2023-02-20T15:46:14;12.41;73.76
9861;DHT22;4969;52.304;4.968;2023-02-20T15:48:40;11.90;74.59
9861;DHT22;4969;52.304;4.968;2023-02-20T15:51:07;11.52;76.57
9861;DHT22;4969;52.304;4.968;2023-02-20T15:53:35;11.65;76.54
9861;DHT22;4969;52.304;4.968;2023-02-20T15:56:03;12.38;73.15
9861;DHT22;4969;52.304;4.968;2023-02-20T15:58:32;12.12;74.94
9861;DHT22;4969;52.304;4.968;2023-02-20T16:00:59;11.36;77.15
9861;DHT22;4969;52.304;4.968;2023-02-20T16:03:29;11.58;76.26
9861;DHT22;4969;52.304;4.968;2023-02-20T16:05:56;11.68;77.00
9861;DHT22;4969;52.304;4.968;2023-02-20T16:08:24;11.24;79.19
9861;DHT22;4969;52.304;4.968;2023-02-20T16:10:51;11.38;80.50
9861;DHT22;4969;52.304;4.968;2023-02-20T16:13:24;11.00;77.34
9861;DHT22;4969;52.304;4.968;2023-02-20T16:15:51;11.44;75.72
9861;DHT22;4969;52.304;4.968;2023-02-20T16:18:17;11.96;77.11
9861;DHT22;4969;52.304;4.968;2023-02-20T16:20:46;11.78;79.17
9861;DHT22;4969;52.304;4.968;2023-02-20T16:23:12;11.27;78.45
9861;DHT22;4969;52.304;4.968;2023-02-20T16:25:39;11.20;77.38
9861;DHT22;4969;52.304;4.968;2023-02-20T16:28:06;11.30;77.25
9861;DHT22;4969;52.304;4.968;2023-02-20T16:30:35;11.64;75.77
9861;DHT22;4969;52.304;4.968;2023-02-20T16:33:10;12.30;76.57